Other Surface Observations
Issued by NWS Great Falls, MT

Home | Current Version | Previous Version | Text Only | Print | Product List | Glossary On
Versions: 1 2 3 4 5 6 7 8 9 10 11 12 13 14 15 16 17 18 19 20 21 22 23 24 25 26 27 28 29 30 31 32 33 34 35 36 37 38 39 40 41 42 43 44 45 46 47 48 49 50
167
SXUS55 KTFX 091244
OSOTFX
AREA AWOS OBSERVATIONS
NATIONAL WEATHER SERVICE GREAT FALLS MT
0544 AM MST TUE FEB 09 2016

METAR KPWD 091245Z AUTO 33005KT 10SM M02/M04 A3018 RMK PLENTYWOOD
METAR KPO1 091245Z AUTO 25007KT 10SM M02/M04 A3023 RMK POPLAR
METAR K1S3 091245Z AUTO 28005KT 10SM M01/M03 A3027 RMK FORSYTH
METAR KS71 091245Z AUTO 00000KT 10SM M04/M05 A3025 RMK CHINOOK
METAR K38S 091245Z AUTO 26004KT 10SM M04/M04 A3051 RMK DEER LODGE
METAR K3U3 091245Z AUTO 00000KT 10SM M02/M03 A3049 RMK ANACONDA
METAR K6S5 091245Z AUTO 00000KT 10SM M04/M05 A3051 RMK HAMILTON
METAR KS59 091245Z AUTO 00000KT 10SM M07/M08 A3055 RMK LIBBY



USA.gov is the U.S. government's official web portal to all federal, state and local government web resources and services.